CFG2PG EDDF-EDDH
Flight info
| Callsign | CFG2PG |
|---|---|
| Flight time | 0h 42m |
| Altitude | 31000 |
| Route | MARUN3W/25C MARUN Y150 TOLGI DCT SAS/N0438F300 P605 NOLGO NOLGO6A |
| Aircraft | A21N/M-SDE2E3FGHIRWXY/LB1 |
Departure
| Time | 2026-05-06 17:51 |
|---|---|
| Airport | Frankfurt Main Airport (EDDF) |
Arrival
| Time | 2026-05-06 18:33 |
|---|---|
| Airport | Hamburg Helmut Schmidt Airport (EDDH) |
| Time | Latitude | Longitude | Altitude | Speed | Heading |
|---|---|---|---|---|---|
| 2026-05-06 17:20 | 50.04744 | 8.58175 | 368 ft | 0 kts | 159° |
| 2026-05-06 17:37 | 50.04749 | 8.58173 | 367 ft | 3 kts | 159° |
| 2026-05-06 17:37 | 50.04774 | 8.58158 | 370 ft | 4 kts | 159° |
| 2026-05-06 17:38 | 50.04795 | 8.58143 | 368 ft | 4 kts | 122° |
| 2026-05-06 17:38 | 50.04796 | 8.58118 | 364 ft | 2 kts | 69° |
| 2026-05-06 17:38 | 50.04792 | 8.58099 | 364 ft | 0 kts | 69° |
| 2026-05-06 17:44 | 50.04794 | 8.58107 | 367 ft | 3 kts | 69° |
| 2026-05-06 17:44 | 50.04806 | 8.58158 | 367 ft | 7 kts | 70° |
| 2026-05-06 17:45 | 50.04828 | 8.58251 | 367 ft | 11 kts | 70° |
| 2026-05-06 17:45 | 50.04859 | 8.58379 | 365 ft | 14 kts | 69° |
| 2026-05-06 17:45 | 50.04897 | 8.58540 | 371 ft | 15 kts | 69° |
| 2026-05-06 17:45 | 50.04900 | 8.58669 | 371 ft | 13 kts | 145° |
| 2026-05-06 17:46 | 50.04846 | 8.58707 | 369 ft | 7 kts | 159° |
| 2026-05-06 17:46 | 50.04794 | 8.58736 | 373 ft | 5 kts | 159° |
| 2026-05-06 17:46 | 50.04792 | 8.58737 | 373 ft | 0 kts | 159° |
| 2026-05-06 17:47 | 50.04789 | 8.58739 | 372 ft | 2 kts | 159° |
| 2026-05-06 17:47 | 50.04758 | 8.58758 | 372 ft | 8 kts | 159° |
| 2026-05-06 17:48 | 50.04713 | 8.58769 | 374 ft | 12 kts | 184° |
| 2026-05-06 17:48 | 50.04614 | 8.58745 | 376 ft | 17 kts | 205° |
| 2026-05-06 17:48 | 50.04529 | 8.58644 | 376 ft | 15 kts | 219° |
| 2026-05-06 17:48 | 50.04480 | 8.58556 | 376 ft | 7 kts | 250° |
| 2026-05-06 17:49 | 50.04477 | 8.58545 | 376 ft | 0 kts | 249° |
| 2026-05-06 17:50 | 50.04419 | 8.58302 | 374 ft | 58 kts | 250° |
| 2026-05-06 17:50 | 50.04199 | 8.57374 | 370 ft | 122 kts | 250° |
| 2026-05-06 17:50 | 50.03843 | 8.55883 | 363 ft | 169 kts | 252° |
| 2026-05-06 17:51 | 50.03434 | 8.54163 | 893 ft | 169 kts | 253° |
| 2026-05-06 17:51 | 50.03023 | 8.52471 | 1562 ft | 169 kts | 251° |
| 2026-05-06 17:51 | 50.02577 | 8.50683 | 2005 ft | 184 kts | 251° |
| 2026-05-06 17:51 | 50.01769 | 8.49082 | 2539 ft | 201 kts | 216° |
| 2026-05-06 17:52 | 50.00509 | 8.48077 | 3251 ft | 207 kts | 204° |
| 2026-05-06 17:52 | 49.99071 | 8.47710 | 3999 ft | 211 kts | 188° |
| 2026-05-06 17:52 | 49.97620 | 8.47428 | 4824 ft | 209 kts | 192° |
| 2026-05-06 17:52 | 49.96182 | 8.47079 | 5605 ft | 209 kts | 193° |
| 2026-05-06 17:53 | 49.94743 | 8.46497 | 6165 ft | 222 kts | 200° |
| 2026-05-06 17:53 | 49.93196 | 8.45748 | 6562 ft | 240 kts | 200° |
| 2026-05-06 17:53 | 49.91663 | 8.44768 | 7316 ft | 239 kts | 220° |
| 2026-05-06 17:53 | 49.90719 | 8.42688 | 8021 ft | 240 kts | 250° |
| 2026-05-06 17:54 | 49.90426 | 8.40136 | 8710 ft | 247 kts | 273° |
| 2026-05-06 17:54 | 49.90921 | 8.37562 | 9409 ft | 254 kts | 297° |
| 2026-05-06 17:54 | 49.92158 | 8.35564 | 10011 ft | 267 kts | 327° |
| 2026-05-06 17:54 | 49.93874 | 8.34399 | 10655 ft | 274 kts | 338° |
| 2026-05-06 17:55 | 49.95728 | 8.33363 | 10950 ft | 294 kts | 338° |
| 2026-05-06 17:55 | 49.97699 | 8.32202 | 11256 ft | 312 kts | 337° |
| 2026-05-06 17:55 | 49.99770 | 8.30915 | 11551 ft | 330 kts | 335° |
| 2026-05-06 17:55 | 50.01957 | 8.29523 | 11820 ft | 349 kts | 337° |
| 2026-05-06 17:56 | 50.04369 | 8.28592 | 12078 ft | 369 kts | 353° |
| 2026-05-06 17:56 | 50.06987 | 8.28837 | 12324 ft | 388 kts | 11° |
| 2026-05-06 17:56 | 50.09594 | 8.30103 | 12838 ft | 396 kts | 18° |
| 2026-05-06 17:56 | 50.12202 | 8.31535 | 13476 ft | 399 kts | 18° |
| 2026-05-06 17:57 | 50.14838 | 8.32985 | 14030 ft | 403 kts | 18° |
| 2026-05-06 17:57 | 50.17503 | 8.34414 | 14580 ft | 407 kts | 17° |
| 2026-05-06 17:57 | 50.20196 | 8.35823 | 15145 ft | 409 kts | 17° |
| 2026-05-06 17:57 | 50.22878 | 8.37249 | 15697 ft | 413 kts | 18° |
| 2026-05-06 17:58 | 50.25636 | 8.38709 | 16285 ft | 416 kts | 18° |
| 2026-05-06 17:58 | 50.28386 | 8.40153 | 16868 ft | 419 kts | 17° |
| 2026-05-06 17:58 | 50.31159 | 8.41622 | 17446 ft | 422 kts | 18° |
| 2026-05-06 17:58 | 50.33945 | 8.43149 | 18017 ft | 426 kts | 18° |
| 2026-05-06 17:59 | 50.36756 | 8.44677 | 18505 ft | 429 kts | 17° |
| 2026-05-06 17:59 | 50.39595 | 8.46206 | 18958 ft | 433 kts | 17° |
| 2026-05-06 17:59 | 50.42453 | 8.47756 | 19434 ft | 436 kts | 18° |
| 2026-05-06 17:59 | 50.45326 | 8.49344 | 19909 ft | 439 kts | 18° |
| 2026-05-06 18:00 | 50.48222 | 8.50871 | 20370 ft | 442 kts | 15° |
| 2026-05-06 18:00 | 50.51181 | 8.52291 | 20834 ft | 445 kts | 15° |
| 2026-05-06 18:00 | 50.54110 | 8.53691 | 21274 ft | 447 kts | 15° |
| 2026-05-06 18:00 | 50.57135 | 8.55139 | 21729 ft | 450 kts | 15° |
| 2026-05-06 18:01 | 50.60151 | 8.56579 | 22094 ft | 455 kts | 15° |
| 2026-05-06 18:01 | 50.63154 | 8.58024 | 22502 ft | 459 kts | 15° |
| 2026-05-06 18:01 | 50.66220 | 8.59502 | 22920 ft | 462 kts | 15° |
| 2026-05-06 18:01 | 50.69301 | 8.60992 | 23342 ft | 465 kts | 15° |
| 2026-05-06 18:02 | 50.72445 | 8.62506 | 23713 ft | 467 kts | 15° |
| 2026-05-06 18:02 | 50.75521 | 8.63998 | 24068 ft | 471 kts | 16° |
| 2026-05-06 18:02 | 50.78570 | 8.66114 | 24432 ft | 475 kts | 26° |
| 2026-05-06 18:02 | 50.81466 | 8.68526 | 24794 ft | 478 kts | 27° |
| 2026-05-06 18:03 | 50.84413 | 8.70998 | 25156 ft | 481 kts | 27° |
| 2026-05-06 18:03 | 50.87378 | 8.73454 | 25559 ft | 482 kts | 26° |
| 2026-05-06 18:03 | 50.90353 | 8.75904 | 26018 ft | 481 kts | 26° |
| 2026-05-06 18:03 | 50.93328 | 8.78332 | 26471 ft | 481 kts | 26° |
| 2026-05-06 18:04 | 50.96337 | 8.80788 | 26947 ft | 480 kts | 26° |
| 2026-05-06 18:04 | 50.99308 | 8.83222 | 27395 ft | 480 kts | 27° |
| 2026-05-06 18:04 | 51.02278 | 8.85661 | 27811 ft | 480 kts | 26° |
| 2026-05-06 18:04 | 51.05237 | 8.88100 | 28248 ft | 480 kts | 27° |
| 2026-05-06 18:05 | 51.08199 | 8.90564 | 28668 ft | 480 kts | 27° |
| 2026-05-06 18:05 | 51.11158 | 8.93063 | 29117 ft | 480 kts | 27° |
| 2026-05-06 18:05 | 51.14100 | 8.95529 | 29538 ft | 479 kts | 27° |
| 2026-05-06 18:05 | 51.17059 | 8.97990 | 29938 ft | 479 kts | 27° |
| 2026-05-06 18:06 | 51.20009 | 9.00430 | 30302 ft | 478 kts | 27° |
| 2026-05-06 18:06 | 51.22954 | 9.02882 | 30665 ft | 477 kts | 26° |
| 2026-05-06 18:06 | 51.25895 | 9.05324 | 30802 ft | 475 kts | 26° |
| 2026-05-06 18:06 | 51.28827 | 9.07736 | 30817 ft | 475 kts | 26° |
| 2026-05-06 18:07 | 51.34696 | 9.12628 | 30806 ft | 476 kts | 27° |
| 2026-05-06 18:07 | 51.40565 | 9.17528 | 30799 ft | 476 kts | 26° |
| 2026-05-06 18:08 | 51.46425 | 9.22444 | 30815 ft | 472 kts | 27° |
| 2026-05-06 18:08 | 51.52195 | 9.27331 | 30798 ft | 468 kts | 27° |
| 2026-05-06 18:09 | 51.57956 | 9.32209 | 30799 ft | 468 kts | 27° |
| 2026-05-06 18:09 | 51.63720 | 9.37083 | 30797 ft | 468 kts | 27° |
| 2026-05-06 18:10 | 51.69463 | 9.41969 | 30802 ft | 462 kts | 27° |
| 2026-05-06 18:10 | 51.75130 | 9.46781 | 30795 ft | 460 kts | 27° |
| 2026-05-06 18:11 | 51.80797 | 9.51614 | 30800 ft | 460 kts | 27° |
| 2026-05-06 18:11 | 51.86471 | 9.56407 | 30799 ft | 460 kts | 26° |
| 2026-05-06 18:12 | 51.92201 | 9.61057 | 30798 ft | 460 kts | 25° |
| 2026-05-06 18:12 | 51.97923 | 9.65742 | 30801 ft | 460 kts | 26° |
| 2026-05-06 18:13 | 52.03592 | 9.70435 | 30804 ft | 460 kts | 26° |
| 2026-05-06 18:13 | 52.09333 | 9.75202 | 30806 ft | 461 kts | 26° |
| 2026-05-06 18:14 | 52.14996 | 9.79936 | 30821 ft | 460 kts | 26° |
| 2026-05-06 18:14 | 52.20694 | 9.84712 | 30824 ft | 460 kts | 26° |
| 2026-05-06 18:15 | 52.26589 | 9.88641 | 30829 ft | 457 kts | 10° |
| 2026-05-06 18:15 | 52.32907 | 9.90118 | 30562 ft | 452 kts | 5° |
| 2026-05-06 18:16 | 52.35982 | 9.90752 | 30259 ft | 452 kts | 6° |
| 2026-05-06 18:16 | 52.39141 | 9.91429 | 29986 ft | 451 kts | 6° |
| 2026-05-06 18:16 | 52.42219 | 9.92091 | 29705 ft | 451 kts | 6° |
| 2026-05-06 18:16 | 52.45330 | 9.92765 | 29278 ft | 451 kts | 6° |
| 2026-05-06 18:17 | 52.48443 | 9.93442 | 28431 ft | 450 kts | 6° |
| 2026-05-06 18:17 | 52.51546 | 9.94114 | 27591 ft | 450 kts | 6° |
| 2026-05-06 18:17 | 52.54654 | 9.94794 | 26736 ft | 451 kts | 6° |
| 2026-05-06 18:17 | 52.57770 | 9.95479 | 25859 ft | 453 kts | 6° |
| 2026-05-06 18:18 | 52.60894 | 9.96168 | 25077 ft | 452 kts | 6° |
| 2026-05-06 18:18 | 52.64022 | 9.96853 | 24246 ft | 454 kts | 6° |
| 2026-05-06 18:18 | 52.67148 | 9.97532 | 23543 ft | 452 kts | 6° |
| 2026-05-06 18:18 | 52.70254 | 9.98217 | 22753 ft | 450 kts | 6° |
| 2026-05-06 18:19 | 52.73350 | 9.98902 | 21984 ft | 446 kts | 6° |
| 2026-05-06 18:19 | 52.76410 | 9.99566 | 21223 ft | 442 kts | 6° |
| 2026-05-06 18:19 | 52.79441 | 10.00232 | 20481 ft | 436 kts | 6° |
| 2026-05-06 18:19 | 52.82433 | 10.00895 | 19751 ft | 432 kts | 6° |
| 2026-05-06 18:20 | 52.85395 | 10.01551 | 19038 ft | 427 kts | 6° |
| 2026-05-06 18:20 | 52.88323 | 10.02208 | 18335 ft | 423 kts | 6° |
| 2026-05-06 18:20 | 52.91223 | 10.02859 | 17572 ft | 419 kts | 6° |
| 2026-05-06 18:20 | 52.94097 | 10.03503 | 16858 ft | 414 kts | 7° |
| 2026-05-06 18:21 | 52.96929 | 10.04138 | 16244 ft | 408 kts | 7° |
| 2026-05-06 18:21 | 52.99732 | 10.04766 | 15632 ft | 405 kts | 6° |
| 2026-05-06 18:21 | 53.02506 | 10.05380 | 15061 ft | 401 kts | 7° |
| 2026-05-06 18:21 | 53.05256 | 10.05998 | 14534 ft | 398 kts | 7° |
| 2026-05-06 18:22 | 53.07990 | 10.06620 | 14023 ft | 395 kts | 7° |
| 2026-05-06 18:22 | 53.10705 | 10.07238 | 13501 ft | 391 kts | 7° |
| 2026-05-06 18:22 | 53.13380 | 10.07843 | 12873 ft | 385 kts | 7° |
| 2026-05-06 18:22 | 53.16020 | 10.08439 | 12221 ft | 380 kts | 7° |
| 2026-05-06 18:23 | 53.18623 | 10.09028 | 11635 ft | 374 kts | 8° |
| 2026-05-06 18:23 | 53.21163 | 10.09604 | 11122 ft | 363 kts | 8° |
| 2026-05-06 18:23 | 53.23631 | 10.10164 | 10660 ft | 351 kts | 8° |
| 2026-05-06 18:23 | 53.26025 | 10.10130 | 10216 ft | 340 kts | 349° |
| 2026-05-06 18:24 | 53.28181 | 10.08729 | 9861 ft | 328 kts | 328° |
| 2026-05-06 18:24 | 53.29948 | 10.06433 | 9541 ft | 315 kts | 319° |
| 2026-05-06 18:24 | 53.31257 | 10.03590 | 9302 ft | 305 kts | 299° |
| 2026-05-06 18:24 | 53.32140 | 10.00446 | 9121 ft | 293 kts | 294° |
| 2026-05-06 18:25 | 53.32930 | 9.97360 | 8791 ft | 287 kts | 295° |
| 2026-05-06 18:25 | 53.33684 | 9.94260 | 8317 ft | 287 kts | 295° |
| 2026-05-06 18:25 | 53.34432 | 9.91162 | 7775 ft | 288 kts | 294° |
| 2026-05-06 18:25 | 53.35267 | 9.88132 | 7173 ft | 287 kts | 306° |
| 2026-05-06 18:26 | 53.36562 | 9.85668 | 6798 ft | 277 kts | 317° |
| 2026-05-06 18:26 | 53.37933 | 9.83462 | 6375 ft | 271 kts | 319° |
| 2026-05-06 18:26 | 53.39306 | 9.81302 | 5851 ft | 269 kts | 319° |
| 2026-05-06 18:26 | 53.40663 | 9.79157 | 5307 ft | 268 kts | 319° |
| 2026-05-06 18:27 | 53.42015 | 9.76988 | 4734 ft | 269 kts | 319° |
| 2026-05-06 18:27 | 53.43369 | 9.74797 | 4111 ft | 272 kts | 319° |
| 2026-05-06 18:27 | 53.44719 | 9.72609 | 3735 ft | 267 kts | 319° |
| 2026-05-06 18:27 | 53.46090 | 9.70597 | 3519 ft | 255 kts | 333° |
| 2026-05-06 18:28 | 53.47701 | 9.69731 | 3332 ft | 236 kts | 3° |
| 2026-05-06 18:28 | 53.49179 | 9.70472 | 3162 ft | 215 kts | 38° |
| 2026-05-06 18:28 | 53.49886 | 9.71565 | 3073 ft | 204 kts | 50° |
| 2026-05-06 18:28 | 53.50717 | 9.73383 | 2956 ft | 187 kts | 56° |
| 2026-05-06 18:29 | 53.51424 | 9.75047 | 2980 ft | 162 kts | 55° |
| 2026-05-06 18:29 | 53.52098 | 9.76551 | 3001 ft | 161 kts | 53° |
| 2026-05-06 18:29 | 53.52786 | 9.78045 | 2912 ft | 161 kts | 53° |
| 2026-05-06 18:29 | 53.53496 | 9.79509 | 2728 ft | 161 kts | 52° |
| 2026-05-06 18:30 | 53.54207 | 9.80950 | 2512 ft | 160 kts | 51° |
| 2026-05-06 18:30 | 53.54918 | 9.82389 | 2293 ft | 160 kts | 51° |
| 2026-05-06 18:30 | 53.55624 | 9.83815 | 2071 ft | 158 kts | 51° |
| 2026-05-06 18:30 | 53.56324 | 9.85231 | 1891 ft | 158 kts | 51° |
| 2026-05-06 18:31 | 53.57016 | 9.86629 | 1682 ft | 148 kts | 52° |
| 2026-05-06 18:31 | 53.57624 | 9.87857 | 1459 ft | 127 kts | 51° |
| 2026-05-06 18:31 | 53.58183 | 9.88989 | 1261 ft | 126 kts | 51° |
| 2026-05-06 18:31 | 53.58735 | 9.90140 | 1072 ft | 126 kts | 51° |
| 2026-05-06 18:32 | 53.59307 | 9.91268 | 910 ft | 127 kts | 51° |
| 2026-05-06 18:32 | 53.59860 | 9.92419 | 725 ft | 128 kts | 49° |
| 2026-05-06 18:32 | 53.60442 | 9.93549 | 588 ft | 128 kts | 50° |
| 2026-05-06 18:32 | 53.61009 | 9.94731 | 389 ft | 130 kts | 48° |
| 2026-05-06 18:33 | 53.61589 | 9.95894 | 222 ft | 130 kts | 50° |
| 2026-05-06 18:33 | 53.62158 | 9.97046 | 69 ft | 128 kts | 49° |
| 2026-05-06 18:33 | 53.62632 | 9.98003 | 54 ft | 66 kts | 51° |
| 2026-05-06 18:33 | 53.62763 | 9.98309 | 55 ft | 21 kts | 102° |
| 2026-05-06 18:34 | 53.62702 | 9.98415 | 56 ft | 11 kts | 142° |
| 2026-05-06 18:34 | 53.62690 | 9.98432 | 56 ft | 0 kts | 140° |
| 2026-05-06 18:35 | 53.62685 | 9.98438 | 56 ft | 2 kts | 140° |
| 2026-05-06 18:35 | 53.62673 | 9.98475 | 56 ft | 5 kts | 99° |
| 2026-05-06 18:35 | 53.62687 | 9.98546 | 53 ft | 8 kts | 59° |
| 2026-05-06 18:36 | 53.62712 | 9.98599 | 56 ft | 4 kts | 52° |
| 2026-05-06 18:36 | 53.62718 | 9.98611 | 56 ft | 2 kts | 51° |
| 2026-05-06 18:36 | 53.62726 | 9.98628 | 56 ft | 0 kts | 50° |
| 2026-05-06 18:37 | 53.62734 | 9.98644 | 56 ft | 3 kts | 50° |
| 2026-05-06 18:37 | 53.62757 | 9.98691 | 56 ft | 7 kts | 50° |
| 2026-05-06 18:37 | 53.62797 | 9.98771 | 56 ft | 11 kts | 51° |
| 2026-05-06 18:37 | 53.62855 | 9.98889 | 56 ft | 15 kts | 50° |
| 2026-05-06 18:38 | 53.62925 | 9.99029 | 56 ft | 14 kts | 50° |
| 2026-05-06 18:38 | 53.62979 | 9.99138 | 56 ft | 11 kts | 49° |
| 2026-05-06 18:38 | 53.63026 | 9.99233 | 56 ft | 9 kts | 52° |
| 2026-05-06 18:38 | 53.63067 | 9.99326 | 56 ft | 8 kts | 57° |
| 2026-05-06 18:39 | 53.63094 | 9.99390 | 56 ft | 7 kts | 54° |
| 2026-05-06 18:39 | 53.63130 | 9.99476 | 55 ft | 11 kts | 54° |
| 2026-05-06 18:39 | 53.63180 | 9.99588 | 55 ft | 13 kts | 51° |
| 2026-05-06 18:40 | 53.63160 | 9.99818 | 55 ft | 11 kts | 151° |
| 2026-05-06 18:40 | 53.63117 | 9.99867 | 56 ft | 5 kts | 117° |
| 2026-05-06 18:40 | 53.63131 | 9.99934 | 53 ft | 8 kts | 51° |
| 2026-05-06 18:40 | 53.63172 | 10.00018 | 56 ft | 7 kts | 52° |
| 2026-05-06 18:41 | 53.63207 | 10.00094 | 56 ft | 10 kts | 52° |
| 2026-05-06 18:41 | 53.63240 | 10.00210 | 56 ft | 10 kts | 85° |
| 2026-05-06 18:41 | 53.63245 | 10.00310 | 56 ft | 6 kts | 86° |
| 2026-05-06 18:41 | 53.63247 | 10.00349 | 56 ft | 2 kts | 87° |
| 2026-05-06 18:42 | 53.63247 | 10.00354 | 56 ft | 0 kts | 87° |